Sykesville, Maryland
Current Conditions -  °F | °C
As of 2:05 PM on Monday 20 Oct 2014 (Local Time) from KDMW Reporting Station
Clear Clear  
Wind Chill: 63°   Ceiling: Unl
Heat Index: 63°   Visibility: 10mi
Dew Point: 43°   Wind: 10mph
Humidity: 48%   Direction: 190°S
Pressure: 29.98"   Gusts: NA
Location:  39.37°N, 76.97°W
Report Text: KDMW 201805Z AUTO 19009KT 10SM CLR 17/06 A2998 RMK AO2
Loading
Personal Weather Stations






























Interactive Weather Map
Tropical Storm Tracking
New forecast layout! Learn more

10-Day Weather Forecast

Advertisements
Track Severe Weather on mobile